createdAt,value
2023-02-08T00:00:50.363Z,11.73
2023-02-08T00:03:18.585Z,11.45
2023-02-08T00:05:45.476Z,12.35
2023-02-08T00:08:12.639Z,10.77
2023-02-08T00:10:39.868Z,11.98
2023-02-08T00:13:07.029Z,10.88
2023-02-08T00:15:33.955Z,11.30
2023-02-08T00:18:01.078Z,9.60
2023-02-08T00:20:28.112Z,11.32
2023-02-08T00:22:55.020Z,10.38
2023-02-08T00:25:21.957Z,11.18
2023-02-08T00:27:48.946Z,10.25
2023-02-08T00:30:16.014Z,9.15
2023-02-08T00:32:42.970Z,8.43
2023-02-08T00:35:09.926Z,9.65
2023-02-08T00:37:36.906Z,9.15
2023-02-08T00:40:05.940Z,9.50
2023-02-08T00:42:33.252Z,8.48
2023-02-08T00:45:00.258Z,9.50
2023-02-08T00:47:27.763Z,9.07
2023-02-08T00:49:54.803Z,8.40
2023-02-08T00:52:21.961Z,9.80
2023-02-08T00:54:49.148Z,9.10
2023-02-08T00:57:16.267Z,8.20
2023-02-08T00:59:43.247Z,9.38
2023-02-08T01:02:10.864Z,8.93
2023-02-08T01:04:38.115Z,8.75
2023-02-08T01:07:06.033Z,7.57
2023-02-08T01:09:34.002Z,8.00
2023-02-08T01:12:01.176Z,9.00
2023-02-08T01:14:28.146Z,9.18
2023-02-08T01:16:55.154Z,8.90
2023-02-08T01:19:22.148Z,8.80
2023-02-08T01:21:51.862Z,7.88
2023-02-08T01:24:18.963Z,9.00
2023-02-08T01:26:45.934Z,8.27
2023-02-08T01:29:13.087Z,7.40
2023-02-08T01:31:42.816Z,7.75
2023-02-08T01:34:10.635Z,8.27
2023-02-08T01:36:38.830Z,8.55
2023-02-08T01:39:07.280Z,7.20
2023-02-08T01:41:37.358Z,8.20
2023-02-08T01:44:09.650Z,8.05
2023-02-08T01:46:48.813Z,7.85
2023-02-08T01:49:24.798Z,8.82
2023-02-08T01:52:01.236Z,7.47
2023-02-08T01:54:32.224Z,8.75
2023-02-08T01:56:59.419Z,8.13
2023-02-08T02:00:04.624Z,7.75
2023-02-08T02:02:31.872Z,7.53
2023-02-08T02:04:58.827Z,8.13
2023-02-08T02:07:30.256Z,8.15
2023-02-08T02:10:04.230Z,8.27
2023-02-08T02:12:32.987Z,8.90
2023-02-08T02:15:01.104Z,8.88
2023-02-08T02:17:28.254Z,9.15
2023-02-08T02:20:01.009Z,7.85
2023-02-08T02:22:27.904Z,9.10
2023-02-08T02:25:23.495Z,9.52
2023-02-08T02:28:10.768Z,9.63
2023-02-08T02:31:08.503Z,9.07
2023-02-08T02:34:12.791Z,9.68
2023-02-08T02:36:42.545Z,9.80
2023-02-08T02:39:30.710Z,10.20
2023-02-08T02:42:34.864Z,9.82
2023-02-08T02:45:26.137Z,10.07
2023-02-08T02:48:26.031Z,10.02
2023-02-08T02:50:59.000Z,9.18
2023-02-08T02:53:34.233Z,10.48
2023-02-08T02:56:10.196Z,9.65
2023-02-08T02:58:38.717Z,10.38
2023-02-08T03:01:05.822Z,10.40
2023-02-08T03:03:35.127Z,11.23
2023-02-08T03:06:09.704Z,11.18
2023-02-08T03:11:31.086Z,12.07
2023-02-08T03:14:39.171Z,11.48
2023-02-08T03:17:31.607Z,11.60
2023-02-08T03:20:21.826Z,13.00
2023-02-08T03:23:08.489Z,11.98
2023-02-08T03:25:52.950Z,13.40
2023-02-08T03:28:38.058Z,12.73
2023-02-08T03:31:18.162Z,13.18
2023-02-08T03:33:58.401Z,12.68
2023-02-08T03:36:33.218Z,12.90
2023-02-08T03:39:06.064Z,12.48
2023-02-08T03:41:37.524Z,11.60
2023-02-08T03:44:10.397Z,13.35
2023-02-08T03:46:46.898Z,13.15
2023-02-08T03:49:18.504Z,12.82
2023-02-08T03:51:46.380Z,12.80
2023-02-08T03:54:19.824Z,14.30
2023-02-08T03:56:46.704Z,14.23
2023-02-08T03:59:20.802Z,12.63
2023-02-08T04:02:06.021Z,12.75
2023-02-08T04:04:40.798Z,12.75
2023-02-08T04:07:07.951Z,13.80
2023-02-08T04:09:35.766Z,13.27
2023-02-08T04:12:04.421Z,14.32
2023-02-08T04:14:31.723Z,14.25
2023-02-08T04:16:58.695Z,13.98
2023-02-08T04:19:25.649Z,14.00
2023-02-08T04:21:52.662Z,13.27
2023-02-08T04:24:20.399Z,13.80
2023-02-08T04:26:48.016Z,14.43
2023-02-08T04:29:15.089Z,14.68
2023-02-08T04:31:42.187Z,14.15
2023-02-08T04:34:09.200Z,15.93
2023-02-08T04:36:36.560Z,14.90
2023-02-08T04:39:03.646Z,13.48
2023-02-08T04:41:30.594Z,14.05
2023-02-08T04:43:57.614Z,13.00
2023-02-08T04:46:24.622Z,14.50
2023-02-08T04:48:51.585Z,13.75
2023-02-08T04:51:18.609Z,14.93
2023-02-08T04:53:45.515Z,13.93
2023-02-08T04:56:12.494Z,13.65
2023-02-08T04:58:39.403Z,13.85
2023-02-08T05:01:08.197Z,14.77
2023-02-08T05:03:35.860Z,14.32
2023-02-08T05:06:02.953Z,13.35
2023-02-08T05:08:29.898Z,12.93
2023-02-08T05:10:56.845Z,13.80
2023-02-08T05:13:23.805Z,13.68
2023-02-08T05:15:50.903Z,13.93
2023-02-08T05:18:17.844Z,13.20
2023-02-08T05:20:45.327Z,15.32
2023-02-08T05:23:12.353Z,13.57
2023-02-08T05:25:39.901Z,12.02
2023-02-08T05:28:07.000Z,12.15
2023-02-08T05:30:34.068Z,13.27
2023-02-08T05:33:01.118Z,12.32
2023-02-08T05:35:28.079Z,13.45
2023-02-08T05:37:55.017Z,13.82
2023-02-08T05:40:22.023Z,13.35
2023-02-08T05:42:49.024Z,13.50
2023-02-08T05:45:16.312Z,13.18
2023-02-08T05:47:43.387Z,13.07
2023-02-08T05:50:10.565Z,12.35
2023-02-08T05:52:37.560Z,13.13
2023-02-08T05:55:04.768Z,11.57
2023-02-08T05:57:34.220Z,12.40
2023-02-08T06:00:03.468Z,13.73
2023-02-08T06:02:30.579Z,13.10
2023-02-08T06:04:57.574Z,15.02
2023-02-08T06:07:24.883Z,14.50
2023-02-08T06:09:51.797Z,12.48
2023-02-08T06:12:19.080Z,12.85
2023-02-08T06:14:45.999Z,14.38
2023-02-08T06:17:12.981Z,12.30
2023-02-08T06:19:39.996Z,12.32
2023-02-08T06:22:06.956Z,11.43
2023-02-08T06:24:33.862Z,11.40
2023-02-08T06:27:00.768Z,13.05
2023-02-08T06:29:27.646Z,11.93
2023-02-08T06:31:54.670Z,11.20
2023-02-08T06:34:21.745Z,12.70
2023-02-08T06:36:48.690Z,11.82
2023-02-08T06:39:15.690Z,11.18
2023-02-08T06:41:42.921Z,11.40
2023-02-08T06:44:09.938Z,11.57
2023-02-08T06:46:36.862Z,11.90
2023-02-08T06:49:04.051Z,10.48
2023-02-08T06:51:31.259Z,10.38
2023-02-08T06:53:58.269Z,11.73
2023-02-08T06:56:25.568Z,11.43
2023-02-08T06:58:52.536Z,11.00
2023-02-08T07:01:19.499Z,11.57
2023-02-08T07:03:46.497Z,11.15
2023-02-08T07:06:15.774Z,11.32
2023-02-08T07:08:42.868Z,11.43
2023-02-08T07:11:12.531Z,10.48
2023-02-08T07:13:40.171Z,11.88
2023-02-08T07:16:09.418Z,10.48
2023-02-08T07:18:36.858Z,10.82
2023-02-08T07:21:04.299Z,10.32
2023-02-08T07:23:31.702Z,11.55
2023-02-08T07:26:05.132Z,11.32
2023-02-08T07:28:32.137Z,9.90
2023-02-08T07:30:59.180Z,10.98
2023-02-08T07:33:26.313Z,12.40
2023-02-08T07:35:53.301Z,10.80
2023-02-08T07:38:20.928Z,10.95
2023-02-08T07:40:48.208Z,10.80
2023-02-08T07:43:15.262Z,9.20
2023-02-08T07:45:42.561Z,10.00
2023-02-08T07:48:09.546Z,10.52
2023-02-08T07:50:36.501Z,9.27
2023-02-08T07:53:03.585Z,8.98
2023-02-08T07:55:30.587Z,10.23
2023-02-08T07:57:58.717Z,9.45
2023-02-08T08:00:27.066Z,10.10
2023-02-08T08:02:54.472Z,9.75
2023-02-08T08:05:21.854Z,9.18
2023-02-08T08:07:48.749Z,9.52
2023-02-08T08:10:15.749Z,10.55
2023-02-08T08:12:42.695Z,9.45
2023-02-08T08:15:10.027Z,9.88
2023-02-08T08:17:36.994Z,10.05
2023-02-08T08:20:04.114Z,10.35
2023-02-08T08:22:31.160Z,10.90
2023-02-08T08:24:58.862Z,9.80
2023-02-08T08:27:26.065Z,10.68
2023-02-08T08:29:53.013Z,10.00
2023-02-08T08:32:20.219Z,10.50
2023-02-08T08:34:47.125Z,10.43
2023-02-08T08:37:14.104Z,11.38
2023-02-08T08:39:41.094Z,11.82
2023-02-08T08:42:08.135Z,10.32
2023-02-08T08:44:35.148Z,11.07
2023-02-08T08:47:02.546Z,11.23
2023-02-08T08:49:30.186Z,9.88
2023-02-08T08:51:58.273Z,11.55
2023-02-08T08:54:25.297Z,11.80
2023-02-08T08:56:52.297Z,12.52
2023-02-08T08:59:19.436Z,13.55
2023-02-08T09:01:46.420Z,11.73
2023-02-08T09:04:13.499Z,12.73
2023-02-08T09:06:40.534Z,12.30
2023-02-08T09:09:08.036Z,13.00
2023-02-08T09:11:35.038Z,11.52
2023-02-08T09:14:05.523Z,13.32
2023-02-08T09:16:33.289Z,15.35
2023-02-08T09:19:08.315Z,14.15
2023-02-08T09:21:35.822Z,13.35
2023-02-08T09:24:04.073Z,12.48
2023-02-08T09:26:31.183Z,13.23
2023-02-08T09:28:58.213Z,12.38
2023-02-08T09:31:27.694Z,13.77
2023-02-08T09:33:56.995Z,15.68
2023-02-08T09:36:28.239Z,13.38
2023-02-08T09:39:00.443Z,14.25
2023-02-08T09:41:59.038Z,13.95
2023-02-08T09:44:31.768Z,15.30
2023-02-08T09:47:30.995Z,15.63
2023-02-08T09:50:00.880Z,15.82
2023-02-08T09:52:39.527Z,14.60
2023-02-08T09:55:40.722Z,15.45
2023-02-08T09:58:40.790Z,14.32
2023-02-08T10:01:23.905Z,17.10
2023-02-08T10:03:57.093Z,16.42
2023-02-08T10:06:24.444Z,16.48
2023-02-08T10:08:53.048Z,16.20
2023-02-08T10:11:31.899Z,16.90
2023-02-08T10:14:23.793Z,18.00
2023-02-08T10:17:21.794Z,16.48
2023-02-08T10:20:01.615Z,16.05
2023-02-08T10:22:53.828Z,16.85
2023-02-08T10:25:32.628Z,16.73
2023-02-08T10:28:49.305Z,16.42
2023-02-08T10:32:11.504Z,15.35
2023-02-08T10:34:56.886Z,17.38
2023-02-08T10:37:39.648Z,17.23
2023-02-08T10:40:24.636Z,16.63
2023-02-08T10:43:19.184Z,15.27
2023-02-08T10:46:28.553Z,16.23
2023-02-08T10:49:21.424Z,17.05
2023-02-08T10:51:48.969Z,17.05
2023-02-08T10:54:17.919Z,17.73
2023-02-08T10:56:51.518Z,16.45
2023-02-08T10:59:27.256Z,16.23
2023-02-08T11:01:56.470Z,15.75
2023-02-08T11:04:23.520Z,16.35
2023-02-08T11:06:51.995Z,16.00
2023-02-08T11:09:31.015Z,16.35
2023-02-08T11:12:02.636Z,16.15
2023-02-08T11:14:47.098Z,16.55
2023-02-08T11:19:51.167Z,17.10
2023-02-08T11:22:24.832Z,16.92
2023-02-08T11:24:57.455Z,17.00
2023-02-08T11:27:33.619Z,17.42
2023-02-08T11:30:24.457Z,16.85
2023-02-08T11:33:14.176Z,17.52
2023-02-08T11:35:42.383Z,18.73
2023-02-08T11:38:19.826Z,18.50
2023-02-08T11:40:46.902Z,16.58
2023-02-08T11:43:27.376Z,17.73
2023-02-08T11:45:57.000Z,17.20
2023-02-08T11:48:34.935Z,16.35
2023-02-08T11:51:03.485Z,16.88
2023-02-08T11:53:36.640Z,17.95
2023-02-08T11:56:23.622Z,17.23
2023-02-08T11:59:17.494Z,16.73
2023-02-08T12:01:44.810Z,18.20
2023-02-08T12:04:14.820Z,18.45
2023-02-08T12:06:47.445Z,17.63
2023-02-08T12:09:31.959Z,16.50
2023-02-08T12:12:33.829Z,16.95
2023-02-08T12:15:24.487Z,17.35
2023-02-08T12:17:54.280Z,16.83
2023-02-08T12:20:42.950Z,17.52
2023-02-08T12:23:37.472Z,16.60
2023-02-08T12:26:23.225Z,16.25
2023-02-08T12:29:11.386Z,15.05
2023-02-08T12:31:38.332Z,15.82
2023-02-08T12:34:08.312Z,17.27
2023-02-08T12:36:48.988Z,16.85
2023-02-08T12:39:57.194Z,16.40
2023-02-08T12:42:46.810Z,16.20
2023-02-08T12:45:33.057Z,15.57
2023-02-08T12:48:11.773Z,15.43
2023-02-08T12:50:47.630Z,15.00
2023-02-08T12:53:33.625Z,16.50
2023-02-08T12:56:07.016Z,15.93
2023-02-08T12:58:47.449Z,15.98
2023-02-08T13:01:26.221Z,15.65
2023-02-08T13:04:10.904Z,16.88
2023-02-08T13:07:00.974Z,15.43
2023-02-08T13:09:35.501Z,16.00
2023-02-08T13:12:06.531Z,16.95
2023-02-08T13:14:58.707Z,16.23
2023-02-08T13:17:37.244Z,15.32
2023-02-08T13:20:33.818Z,15.00
2023-02-08T13:23:06.644Z,17.27
2023-02-08T13:25:36.868Z,17.70
2023-02-08T13:28:06.595Z,15.00
2023-02-08T13:30:39.581Z,16.30
2023-02-08T13:33:22.392Z,15.77
2023-02-08T13:35:51.652Z,16.58
2023-02-08T13:38:31.849Z,16.48
2023-02-08T13:41:17.865Z,17.88
2023-02-08T13:44:04.973Z,16.58
2023-02-08T13:46:47.406Z,16.30
2023-02-08T13:49:52.990Z,14.82
2023-02-08T13:52:48.240Z,15.10
2023-02-08T13:55:34.483Z,18.45
2023-02-08T13:58:14.658Z,19.15
2023-02-08T14:00:53.706Z,16.92
2023-02-08T14:03:28.158Z,17.50
2023-02-08T14:08:31.768Z,16.85
2023-02-08T14:11:33.037Z,17.23
2023-02-08T14:14:06.344Z,18.15
2023-02-08T14:16:41.323Z,20.13
2023-02-08T14:19:20.100Z,19.20
2023-02-08T14:22:15.924Z,18.10
2023-02-08T14:25:00.886Z,18.35
2023-02-08T14:27:35.818Z,19.83
2023-02-08T14:30:07.610Z,19.20
2023-02-08T14:32:38.163Z,19.30
2023-02-08T14:35:09.720Z,20.17
2023-02-08T14:37:37.850Z,20.48
2023-02-08T14:40:17.094Z,20.20
2023-02-08T14:42:54.769Z,19.63
2023-02-08T14:45:34.239Z,20.10
2023-02-08T14:48:19.330Z,20.80
2023-02-08T14:50:55.489Z,20.38
2023-02-08T14:53:25.733Z,20.60
2023-02-08T14:55:59.365Z,21.85
2023-02-08T14:58:57.596Z,20.73
2023-02-08T15:01:27.545Z,20.52
2023-02-08T15:04:00.530Z,21.17
2023-02-08T15:06:50.218Z,22.02
2023-02-08T15:09:22.665Z,20.33
2023-02-08T15:12:18.836Z,22.98
2023-02-08T15:14:46.240Z,20.75
2023-02-08T15:17:41.220Z,22.00
2023-02-08T15:20:20.888Z,21.88
2023-02-08T15:22:48.086Z,22.63
2023-02-08T15:25:25.781Z,21.60
2023-02-08T15:27:56.298Z,21.75
2023-02-08T15:30:36.665Z,20.27
2023-02-08T15:33:10.445Z,22.33
2023-02-08T15:35:37.643Z,23.38
2023-02-08T15:38:05.649Z,23.65
2023-02-08T15:40:35.034Z,23.38
2023-02-08T15:43:07.934Z,23.48
2023-02-08T15:45:35.629Z,22.60
2023-02-08T15:48:03.565Z,24.35
2023-02-08T15:50:33.437Z,22.77
2023-02-08T15:53:06.698Z,24.10
2023-02-08T15:55:45.335Z,22.15
2023-02-08T15:58:28.903Z,22.38
2023-02-08T16:00:59.019Z,24.00
2023-02-08T16:03:28.214Z,23.27
2023-02-08T16:06:01.822Z,24.00
2023-02-08T16:08:35.757Z,22.23
2023-02-08T16:11:14.070Z,23.15
2023-02-08T16:13:46.854Z,22.95
2023-02-08T16:16:16.876Z,25.42
2023-02-08T16:18:58.657Z,23.63
2023-02-08T16:21:25.504Z,23.05
2023-02-08T16:23:56.614Z,24.08
2023-02-08T16:26:40.805Z,23.85
2023-02-08T16:29:18.828Z,23.20
2023-02-08T16:31:48.609Z,23.70
2023-02-08T16:34:18.446Z,23.92
2023-02-08T16:36:51.098Z,24.58
2023-02-08T16:39:22.081Z,24.20
2023-02-08T16:42:06.476Z,23.70
2023-02-08T16:45:17.593Z,23.38
2023-02-08T16:47:56.893Z,24.48
2023-02-08T16:50:27.920Z,23.83
2023-02-08T16:52:59.632Z,26.52
2023-02-08T16:55:29.910Z,26.60
2023-02-08T16:57:58.744Z,23.73
2023-02-08T17:00:32.145Z,25.13
2023-02-08T17:02:59.447Z,25.08
2023-02-08T17:05:30.131Z,27.00
2023-02-08T17:07:58.158Z,25.23
2023-02-08T17:10:31.081Z,27.52
2023-02-08T17:13:18.821Z,24.58
2023-02-08T17:15:48.303Z,26.52
2023-02-08T17:18:15.565Z,24.02
2023-02-08T17:20:43.239Z,24.25
2023-02-08T17:23:11.318Z,24.42
2023-02-08T17:25:38.784Z,25.50
2023-02-08T17:28:18.484Z,26.15
2023-02-08T17:30:46.927Z,23.15
2023-02-08T17:33:20.506Z,25.60
2023-02-08T17:35:52.576Z,25.40
2023-02-08T17:38:20.814Z,25.15
2023-02-08T17:40:48.188Z,25.17
2023-02-08T17:43:15.370Z,26.02
2023-02-08T17:45:44.598Z,26.13
2023-02-08T17:48:15.798Z,25.13
2023-02-08T17:50:48.008Z,25.55
2023-02-08T17:53:16.037Z,22.33
2023-02-08T17:55:44.692Z,24.85
2023-02-08T17:58:12.532Z,26.40
2023-02-08T18:00:41.087Z,24.50
2023-02-08T18:03:08.084Z,24.05
2023-02-08T18:05:35.267Z,23.33
2023-02-08T18:08:02.219Z,21.27
2023-02-08T18:10:29.211Z,24.70
2023-02-08T18:12:56.203Z,22.65
2023-02-08T18:15:24.285Z,22.27
2023-02-08T18:17:51.488Z,22.42
2023-02-08T18:20:18.917Z,20.33
2023-02-08T18:22:45.927Z,19.38
2023-02-08T18:25:13.834Z,21.00
2023-02-08T18:27:41.141Z,22.88
2023-02-08T18:30:08.925Z,23.25
2023-02-08T18:32:36.026Z,21.52
2023-02-08T18:35:04.260Z,22.23
2023-02-08T18:37:32.378Z,21.45
2023-02-08T18:40:00.238Z,22.35
2023-02-08T18:42:27.718Z,21.98
2023-02-08T18:44:54.757Z,22.65
2023-02-08T18:47:21.946Z,22.23
2023-02-08T18:49:57.607Z,21.88
2023-02-08T18:52:24.780Z,24.02
2023-02-08T18:54:52.083Z,21.13
2023-02-08T18:57:19.730Z,24.10
2023-02-08T18:59:46.823Z,23.50
2023-02-08T19:02:20.965Z,23.90
2023-02-08T19:04:48.300Z,23.30
2023-02-08T19:07:15.373Z,22.48
2023-02-08T19:09:43.961Z,21.67
2023-02-08T19:12:15.412Z,25.15
2023-02-08T19:14:43.503Z,25.15
2023-02-08T19:17:12.358Z,22.90
2023-02-08T19:19:40.748Z,22.73
2023-02-08T19:22:07.778Z,23.75
2023-02-08T19:24:34.818Z,23.48
2023-02-08T19:27:01.829Z,23.80
2023-02-08T19:29:29.074Z,23.88
2023-02-08T19:31:58.234Z,23.60
2023-02-08T19:34:25.616Z,25.17
2023-02-08T19:36:54.998Z,23.02
2023-02-08T19:39:27.191Z,23.38
2023-02-08T19:41:55.362Z,22.75
2023-02-08T19:44:22.966Z,21.95
2023-02-08T19:46:55.268Z,22.75
2023-02-08T19:49:26.256Z,21.05
2023-02-08T19:51:53.528Z,20.25
2023-02-08T19:54:20.991Z,21.08
2023-02-08T19:56:50.463Z,23.05
2023-02-08T19:59:29.082Z,20.15
2023-02-08T20:01:56.202Z,19.50
2023-02-08T20:04:23.857Z,20.17
2023-02-08T20:06:53.004Z,20.48
2023-02-08T20:09:20.761Z,20.67
2023-02-08T20:11:57.938Z,20.55
2023-02-08T20:14:26.896Z,18.67
2023-02-08T20:16:54.388Z,17.85
2023-02-08T20:19:21.619Z,19.27
2023-02-08T20:21:48.647Z,17.23
2023-02-08T20:24:16.073Z,19.55
2023-02-08T20:26:45.291Z,17.58
2023-02-08T20:29:13.329Z,17.35
2023-02-08T20:31:42.889Z,17.23
2023-02-08T20:34:13.218Z,18.65
2023-02-08T20:36:46.164Z,20.20
2023-02-08T20:39:18.969Z,15.30
2023-02-08T20:41:47.560Z,17.40
2023-02-08T20:44:18.589Z,16.85
2023-02-08T20:46:46.704Z,16.55
2023-02-08T20:49:15.415Z,16.25
2023-02-08T20:51:43.543Z,17.55
2023-02-08T20:54:10.676Z,17.42
2023-02-08T20:56:38.772Z,17.83
2023-02-08T20:59:08.728Z,16.92
2023-02-08T21:01:36.434Z,16.65
2023-02-08T21:04:05.212Z,17.13
2023-02-08T21:06:35.253Z,17.42
2023-02-08T21:09:08.585Z,16.83
2023-02-08T21:11:36.119Z,15.27
2023-02-08T21:14:04.596Z,16.85
2023-02-08T21:16:32.525Z,15.75
2023-02-08T21:18:59.979Z,14.70
2023-02-08T21:21:28.129Z,16.10
2023-02-08T21:23:56.889Z,14.60
2023-02-08T21:26:25.222Z,15.82
2023-02-08T21:28:56.550Z,14.07
2023-02-08T21:31:25.055Z,15.13
2023-02-08T21:33:53.160Z,14.38
2023-02-08T21:36:22.787Z,14.05
2023-02-08T21:38:49.982Z,14.23
2023-02-08T21:41:23.151Z,13.10
2023-02-08T21:43:51.127Z,13.85
2023-02-08T21:46:18.396Z,13.93
2023-02-08T21:49:04.332Z,13.95
2023-02-08T21:51:49.976Z,14.73
2023-02-08T21:54:38.414Z,13.18
2023-02-08T21:57:07.104Z,12.15
2023-02-08T21:59:37.073Z,15.40
2023-02-08T22:02:06.006Z,13.35
2023-02-08T22:04:35.198Z,12.48
2023-02-08T22:07:04.735Z,14.10
2023-02-08T22:09:31.858Z,12.77
2023-02-08T22:11:59.207Z,14.30
2023-02-08T22:14:26.397Z,12.55
2023-02-08T22:16:53.562Z,13.50
2023-02-08T22:19:20.552Z,12.25
2023-02-08T22:21:47.522Z,12.82
2023-02-08T22:24:14.450Z,13.45
2023-02-08T22:26:41.454Z,13.00
2023-02-08T22:29:08.416Z,13.23
2023-02-08T22:31:35.478Z,12.82
2023-02-08T22:34:02.562Z,12.23
2023-02-08T22:36:29.653Z,12.65
2023-02-08T22:38:56.749Z,13.27
2023-02-08T22:41:23.749Z,13.38
2023-02-08T22:43:50.735Z,12.15
2023-02-08T22:46:17.729Z,12.77
2023-02-08T22:48:44.789Z,12.38
2023-02-08T22:51:17.347Z,13.88
2023-02-08T22:53:45.311Z,12.00
2023-02-08T22:56:15.090Z,12.32
2023-02-08T22:58:42.235Z,13.45
2023-02-08T23:01:17.350Z,13.10
2023-02-08T23:03:44.910Z,14.85
2023-02-08T23:06:15.866Z,16.85
2023-02-08T23:08:43.251Z,15.18
2023-02-08T23:11:12.520Z,14.82
2023-02-08T23:13:39.523Z,15.05
2023-02-08T23:16:06.766Z,16.17
2023-02-08T23:18:36.162Z,17.50
2023-02-08T23:21:12.912Z,16.58
2023-02-08T23:23:40.533Z,18.33
2023-02-08T23:26:10.143Z,17.30
2023-02-08T23:28:37.595Z,17.10
2023-02-08T23:31:09.152Z,15.98
2023-02-08T23:33:37.407Z,16.15
2023-02-08T23:36:30.904Z,17.17
2023-02-08T23:38:57.940Z,14.52
2023-02-08T23:41:25.046Z,17.70
2023-02-08T23:43:53.236Z,15.38
2023-02-08T23:46:23.982Z,16.30
2023-02-08T23:48:51.840Z,15.40
2023-02-08T23:51:20.383Z,15.55
2023-02-08T23:53:47.578Z,15.63
2023-02-08T23:56:26.406Z,17.10
2023-02-08T23:58:56.441Z,16.38
